createdAt,value
2017-02-18T00:00:27.664Z,0
2017-02-18T00:01:36.674Z,0
2017-02-18T00:02:45.713Z,0
2017-02-18T00:03:54.741Z,0
2017-02-18T00:05:03.750Z,0
2017-02-18T00:06:12.764Z,0
2017-02-18T00:07:21.779Z,0
2017-02-18T00:08:30.780Z,0
2017-02-18T00:09:39.813Z,0
2017-02-18T00:10:48.832Z,0
2017-02-18T00:11:57.843Z,0
2017-02-18T00:13:06.859Z,0
2017-02-18T00:14:15.885Z,0
2017-02-18T00:15:24.897Z,0
2017-02-18T00:16:33.926Z,0
2017-02-18T00:17:42.969Z,0
2017-02-18T00:18:51.989Z,0
2017-02-18T00:20:01.013Z,0
2017-02-18T00:21:10.024Z,0
2017-02-18T00:22:19.020Z,0
2017-02-18T00:23:28.054Z,0
2017-02-18T00:24:37.065Z,0
2017-02-18T00:25:46.069Z,0
2017-02-18T00:26:55.102Z,0
2017-02-18T00:28:04.138Z,0
2017-02-18T00:29:13.561Z,0
2017-02-18T00:30:23.028Z,0
2017-02-18T00:31:32.070Z,0
2017-02-18T00:32:41.081Z,0
2017-02-18T00:33:50.087Z,0
2017-02-18T00:34:59.116Z,0
2017-02-18T00:36:08.966Z,0
2017-02-18T00:37:17.978Z,0
2017-02-18T00:38:26.999Z,0
2017-02-18T00:39:36.464Z,0
2017-02-18T00:40:45.891Z,0
2017-02-18T00:41:54.919Z,0
2017-02-18T00:43:04.343Z,0
2017-02-18T00:44:13.364Z,0
2017-02-18T00:45:22.784Z,0
2017-02-18T00:46:31.799Z,0
2017-02-18T00:47:40.816Z,0
2017-02-18T00:48:49.841Z,0
2017-02-18T00:49:59.270Z,0
2017-02-18T00:51:08.286Z,0
2017-02-18T00:52:17.297Z,0
2017-02-18T00:53:26.351Z,0
2017-02-18T00:54:35.375Z,0
2017-02-18T00:55:44.393Z,0
2017-02-18T00:56:53.409Z,0
2017-02-18T00:58:02.426Z,0
2017-02-18T00:59:11.439Z,0
2017-02-18T01:00:20.451Z,0
2017-02-18T01:01:29.457Z,0
2017-02-18T01:02:38.468Z,0
2017-02-18T01:03:47.473Z,0
2017-02-18T01:04:56.480Z,0
2017-02-18T01:06:05.898Z,0
2017-02-18T01:07:14.916Z,0
2017-02-18T01:08:23.920Z,0
2017-02-18T01:09:32.941Z,0
2017-02-18T01:10:41.957Z,0
2017-02-18T01:11:50.981Z,0
2017-02-18T01:12:59.998Z,0
2017-02-18T01:14:09.020Z,0
2017-02-18T01:15:18.054Z,0
2017-02-18T01:16:27.088Z,0
2017-02-18T01:17:36.112Z,0
2017-02-18T01:18:45.152Z,0
2017-02-18T01:19:54.177Z,0
2017-02-18T01:21:03.183Z,0
2017-02-18T01:22:12.205Z,0
2017-02-18T01:23:21.220Z,0
2017-02-18T01:24:30.280Z,0
2017-02-18T01:25:39.283Z,0
2017-02-18T01:26:48.301Z,0
2017-02-18T01:27:57.749Z,0
2017-02-18T01:29:06.771Z,0
2017-02-18T01:30:15.779Z,0
2017-02-18T01:31:25.640Z,0
2017-02-18T01:32:35.074Z,0
2017-02-18T01:33:44.083Z,0
2017-02-18T01:34:53.097Z,0
2017-02-18T01:36:02.124Z,0
2017-02-18T01:37:11.152Z,0
2017-02-18T01:38:20.168Z,0
2017-02-18T01:39:29.174Z,0
2017-02-18T01:40:38.176Z,0
2017-02-18T01:41:47.202Z,0
2017-02-18T01:42:56.219Z,0
2017-02-18T01:44:05.231Z,0
2017-02-18T01:45:14.244Z,0
2017-02-18T01:46:23.249Z,0
2017-02-18T01:47:32.268Z,0
2017-02-18T01:48:41.276Z,0
2017-02-18T01:49:50.732Z,0
2017-02-18T01:50:59.753Z,0
2017-02-18T01:52:08.765Z,0
2017-02-18T01:53:17.775Z,0
2017-02-18T01:54:26.776Z,0
2017-02-18T01:55:35.796Z,0
2017-02-18T01:56:44.841Z,0
2017-02-18T01:57:53.849Z,0
2017-02-18T01:59:02.880Z,0
2017-02-18T02:00:12.303Z,0
2017-02-18T02:01:21.328Z,0
2017-02-18T02:02:30.350Z,0
2017-02-18T02:03:39.361Z,0
2017-02-18T02:04:48.375Z,0
2017-02-18T02:05:57.398Z,0
2017-02-18T02:07:06.412Z,0
2017-02-18T02:08:15.447Z,0
2017-02-18T02:09:24.449Z,0
2017-02-18T02:10:33.457Z,0
2017-02-18T02:11:42.465Z,0
2017-02-18T02:12:51.484Z,0
2017-02-18T02:14:00.493Z,0
2017-02-18T02:15:09.510Z,0
2017-02-18T02:16:18.536Z,0
2017-02-18T02:17:27.970Z,0
2017-02-18T02:18:36.990Z,0
2017-02-18T02:19:46.000Z,0
2017-02-18T02:20:55.090Z,0
2017-02-18T02:22:04.094Z,0
2017-02-18T02:23:13.128Z,0
2017-02-18T02:24:22.147Z,0
2017-02-18T02:25:31.170Z,0
2017-02-18T02:26:40.186Z,0
2017-02-18T02:27:49.191Z,0
2017-02-18T02:28:58.208Z,0
2017-02-18T02:30:07.227Z,0
2017-02-18T02:31:16.228Z,0
2017-02-18T02:32:25.265Z,0
2017-02-18T02:33:34.273Z,0
2017-02-18T02:34:43.711Z,0
2017-02-18T02:35:52.748Z,0
2017-02-18T02:37:01.753Z,0
2017-02-18T02:38:10.771Z,0
2017-02-18T02:39:19.800Z,0
2017-02-18T02:40:28.797Z,0
2017-02-18T02:41:38.214Z,0
2017-02-18T02:42:47.224Z,0
2017-02-18T02:43:56.237Z,0
2017-02-18T02:45:05.263Z,0
2017-02-18T02:46:14.284Z,0
2017-02-18T02:47:23.308Z,0
2017-02-18T02:48:32.325Z,0
2017-02-18T02:49:41.329Z,0
2017-02-18T02:50:50.360Z,0
2017-02-18T02:51:59.788Z,0
2017-02-18T02:53:08.789Z,0
2017-02-18T02:54:17.795Z,0
2017-02-18T02:55:26.817Z,0
2017-02-18T02:56:35.821Z,0
2017-02-18T02:57:44.828Z,0
2017-02-18T02:58:53.896Z,0
2017-02-18T03:00:02.948Z,0
2017-02-18T03:01:12.382Z,0
2017-02-18T03:02:21.377Z,0
2017-02-18T03:03:30.412Z,0
2017-02-18T03:04:39.430Z,0
2017-02-18T03:05:48.443Z,0
2017-02-18T03:06:57.461Z,0
2017-02-18T03:08:06.473Z,0
2017-02-18T03:09:15.494Z,0
2017-02-18T03:10:24.908Z,0
2017-02-18T03:11:33.920Z,0
2017-02-18T03:12:42.955Z,0
2017-02-18T03:13:51.980Z,0
2017-02-18T03:15:00.980Z,0
2017-02-18T03:16:10.029Z,0
2017-02-18T03:17:19.043Z,0
2017-02-18T03:18:28.056Z,0
2017-02-18T03:19:37.495Z,0
2017-02-18T03:20:46.517Z,0
2017-02-18T03:21:55.581Z,0
2017-02-18T03:23:04.600Z,0
2017-02-18T03:24:14.038Z,0
2017-02-18T03:25:23.065Z,0
2017-02-18T03:26:32.074Z,0
2017-02-18T03:27:41.088Z,0
2017-02-18T03:28:50.086Z,0
2017-02-18T03:29:59.108Z,0
2017-02-18T03:31:08.557Z,0
2017-02-18T03:32:17.568Z,0
2017-02-18T03:33:26.588Z,0
2017-02-18T03:34:35.599Z,0
2017-02-18T03:35:44.611Z,0
2017-02-18T03:36:53.638Z,0
2017-02-18T03:38:02.658Z,0
2017-02-18T03:39:11.681Z,0
2017-02-18T03:40:20.690Z,0
2017-02-18T03:41:29.715Z,0
2017-02-18T03:42:38.719Z,0
2017-02-18T03:43:47.724Z,0
2017-02-18T03:44:56.733Z,0
2017-02-18T03:46:06.157Z,0
2017-02-18T03:47:15.160Z,0
2017-02-18T03:48:24.170Z,0
2017-02-18T03:49:33.202Z,0
2017-02-18T03:50:42.644Z,0
2017-02-18T03:51:51.657Z,0
2017-02-18T03:53:01.092Z,0
2017-02-18T03:54:10.109Z,0
2017-02-18T03:55:19.133Z,0
2017-02-18T03:56:28.148Z,0
2017-02-18T03:57:37.160Z,0
2017-02-18T03:58:46.590Z,0
2017-02-18T03:59:55.792Z,0
2017-02-18T04:01:04.797Z,0
2017-02-18T04:02:13.823Z,0
2017-02-18T04:03:22.850Z,0
2017-02-18T04:04:31.857Z,0
2017-02-18T04:05:40.873Z,0
2017-02-18T04:06:49.904Z,0
2017-02-18T04:07:58.934Z,0
2017-02-18T04:09:07.962Z,0
2017-02-18T04:10:16.977Z,0
2017-02-18T04:11:26.082Z,0
2017-02-18T04:12:35.104Z,0
2017-02-18T04:13:44.134Z,0
2017-02-18T04:14:53.288Z,0
2017-02-18T04:16:02.570Z,0
2017-02-18T04:17:11.660Z,0
2017-02-18T04:18:21.105Z,0
2017-02-18T04:19:30.707Z,0
2017-02-18T04:20:39.765Z,0
2017-02-18T04:21:48.772Z,0
2017-02-18T04:22:57.782Z,0
2017-02-18T04:24:06.797Z,0
2017-02-18T04:25:16.218Z,0
2017-02-18T04:26:25.413Z,0
2017-02-18T04:27:34.424Z,0
2017-02-18T04:28:43.451Z,0
2017-02-18T04:29:52.961Z,0
2017-02-18T04:31:02.234Z,0
2017-02-18T04:32:11.641Z,0
2017-02-18T04:33:20.653Z,0
2017-02-18T04:34:29.984Z,0
2017-02-18T04:35:39.442Z,0
2017-02-18T04:36:48.518Z,0
2017-02-18T04:37:57.544Z,0
2017-02-18T04:39:07.085Z,0
2017-02-18T04:40:16.205Z,0
2017-02-18T04:41:25.261Z,0
2017-02-18T04:42:34.278Z,0
2017-02-18T04:43:43.339Z,0
2017-02-18T04:44:52.373Z,0
2017-02-18T04:46:01.411Z,0
2017-02-18T04:47:10.416Z,0
2017-02-18T04:48:19.434Z,0
2017-02-18T04:49:28.862Z,0
2017-02-18T04:50:37.870Z,0
2017-02-18T04:51:46.880Z,0
2017-02-18T04:52:56.329Z,0
2017-02-18T04:54:05.451Z,0
2017-02-18T04:55:14.495Z,0
2017-02-18T04:56:23.530Z,0
2017-02-18T04:57:33.050Z,0
2017-02-18T04:58:42.152Z,0
2017-02-18T04:59:51.179Z,0
2017-02-18T05:01:00.568Z,0
2017-02-18T05:02:10.036Z,0
2017-02-18T05:03:19.346Z,0
2017-02-18T05:04:28.419Z,0
2017-02-18T05:05:37.495Z,0
2017-02-18T05:06:46.560Z,0
2017-02-18T05:07:55.959Z,0
2017-02-18T05:09:05.299Z,0
2017-02-18T05:10:14.868Z,0
2017-02-18T05:11:23.898Z,0
2017-02-18T05:12:32.906Z,0
2017-02-18T05:13:42.239Z,0
2017-02-18T05:14:51.316Z,0
2017-02-18T05:16:00.438Z,0
2017-02-18T05:17:10.403Z,0
2017-02-18T05:18:19.561Z,0
2017-02-18T05:19:29.063Z,0
2017-02-18T05:20:38.251Z,0
2017-02-18T05:21:47.348Z,0
2017-02-18T05:22:56.392Z,0
2017-02-18T05:24:05.450Z,0
2017-02-18T05:25:14.448Z,0
2017-02-18T05:26:23.515Z,0
2017-02-18T05:27:32.544Z,0
2017-02-18T05:28:41.573Z,0
2017-02-18T05:29:50.663Z,0
2017-02-18T05:30:59.826Z,0
2017-02-18T05:32:08.995Z,0
2017-02-18T05:33:17.996Z,0
2017-02-18T05:34:27.033Z,0
2017-02-18T05:35:36.045Z,0
2017-02-18T05:36:45.301Z,0
2017-02-18T05:37:54.762Z,0
2017-02-18T05:39:03.831Z,0
2017-02-18T05:40:12.889Z,0
2017-02-18T05:41:21.980Z,0
2017-02-18T05:42:31.028Z,0
2017-02-18T05:43:40.076Z,0
2017-02-18T05:44:49.503Z,0
2017-02-18T05:45:58.594Z,0
2017-02-18T05:47:07.595Z,0
2017-02-18T05:48:17.043Z,0
2017-02-18T05:49:26.092Z,0
2017-02-18T05:50:35.321Z,0
2017-02-18T05:51:44.363Z,0
2017-02-18T05:52:53.389Z,0
2017-02-18T05:54:02.812Z,0
2017-02-18T05:55:11.814Z,0
2017-02-18T05:56:21.164Z,0
2017-02-18T05:57:30.211Z,0
2017-02-18T05:58:39.220Z,0
2017-02-18T05:59:48.272Z,0
2017-02-18T06:00:57.292Z,0
2017-02-18T06:02:06.370Z,0
2017-02-18T06:03:15.434Z,0
2017-02-18T06:04:24.442Z,0
2017-02-18T06:05:33.537Z,4
2017-02-18T06:06:42.709Z,4
2017-02-18T06:07:52.647Z,0
2017-02-18T06:09:02.237Z,0
2017-02-18T06:10:11.246Z,4
2017-02-18T06:11:20.685Z,4
2017-02-18T06:12:29.707Z,4
2017-02-18T06:13:38.715Z,4
2017-02-18T06:14:47.736Z,4
2017-02-18T06:15:56.759Z,4
2017-02-18T06:17:10.364Z,8
2017-02-18T06:18:20.891Z,8
2017-02-18T06:19:29.925Z,8
2017-02-18T06:20:42.596Z,8
2017-02-18T06:21:57.512Z,12
2017-02-18T06:23:11.029Z,12
2017-02-18T06:24:24.478Z,12
2017-02-18T06:25:38.149Z,16
2017-02-18T06:26:51.881Z,16
2017-02-18T06:28:05.969Z,24
2017-02-18T06:29:20.050Z,24
2017-02-18T06:30:33.489Z,24
2017-02-18T06:31:47.131Z,24
2017-02-18T06:33:00.803Z,20
2017-02-18T06:34:15.097Z,24
2017-02-18T06:35:30.340Z,24
2017-02-18T06:36:43.264Z,24
2017-02-18T06:37:58.192Z,24
2017-02-18T06:39:08.857Z,28
2017-02-18T06:40:17.881Z,28
2017-02-18T06:41:27.160Z,36
2017-02-18T06:42:36.202Z,40
2017-02-18T06:43:48.664Z,44
2017-02-18T06:45:01.902Z,44
2017-02-18T06:46:14.553Z,40
2017-02-18T06:47:29.239Z,44
2017-02-18T06:48:42.770Z,48
2017-02-18T06:49:56.692Z,48
2017-02-18T06:51:11.683Z,52
2017-02-18T06:52:26.093Z,52
2017-02-18T06:53:40.749Z,56
2017-02-18T06:54:54.444Z,56
2017-02-18T06:56:07.991Z,64
2017-02-18T06:57:22.492Z,56
2017-02-18T06:58:37.914Z,60
2017-02-18T06:59:50.827Z,64
2017-02-18T07:01:05.046Z,68
2017-02-18T07:02:19.013Z,68
2017-02-18T07:03:34.483Z,60
2017-02-18T07:04:48.810Z,68
2017-02-18T07:05:59.093Z,64
2017-02-18T07:07:08.528Z,72
2017-02-18T07:08:17.545Z,72
2017-02-18T07:09:26.561Z,84
2017-02-18T07:10:35.576Z,88
2017-02-18T07:11:44.595Z,96
2017-02-18T07:12:53.604Z,100
2017-02-18T07:14:02.609Z,112
2017-02-18T07:15:11.678Z,112
2017-02-18T07:16:20.683Z,112
2017-02-18T07:17:29.702Z,104
2017-02-18T07:18:38.867Z,92
2017-02-18T07:19:47.898Z,96
2017-02-18T07:20:56.907Z,100
2017-02-18T07:22:05.952Z,92
2017-02-18T07:23:14.966Z,88
2017-02-18T07:24:24.050Z,96
2017-02-18T07:25:33.065Z,100
2017-02-18T07:26:42.083Z,92
2017-02-18T07:27:51.104Z,92
2017-02-18T07:29:00.115Z,96
2017-02-18T07:30:09.119Z,104
2017-02-18T07:31:18.146Z,112
2017-02-18T07:32:27.150Z,124
2017-02-18T07:33:36.154Z,112
2017-02-18T07:34:45.183Z,116
2017-02-18T07:35:54.288Z,116
2017-02-18T07:37:03.413Z,112
2017-02-18T07:38:12.423Z,104
2017-02-18T07:39:21.433Z,116
2017-02-18T07:40:30.435Z,112
2017-02-18T07:41:39.456Z,136
2017-02-18T07:42:48.488Z,140
2017-02-18T07:43:57.501Z,128
2017-02-18T07:45:06.941Z,124
2017-02-18T07:46:15.958Z,128
2017-02-18T07:47:25.402Z,128
2017-02-18T07:48:34.424Z,128
2017-02-18T07:49:47.650Z,140
2017-02-18T07:51:02.673Z,108
2017-02-18T07:52:17.635Z,116
2017-02-18T07:53:31.727Z,140
2017-02-18T07:54:46.488Z,156
2017-02-18T07:56:00.370Z,164
2017-02-18T07:57:15.421Z,152
2017-02-18T07:58:29.833Z,148
2017-02-18T07:59:44.178Z,148
2017-02-18T08:00:59.446Z,148
2017-02-18T08:02:13.731Z,140
2017-02-18T08:03:28.203Z,156
2017-02-18T08:04:41.839Z,148
2017-02-18T08:05:55.636Z,164
2017-02-18T08:07:09.369Z,168
2017-02-18T08:08:21.361Z,180
2017-02-18T08:09:30.379Z,172
2017-02-18T08:10:39.393Z,188
2017-02-18T08:11:48.660Z,188
2017-02-18T08:12:58.003Z,188
2017-02-18T08:14:07.079Z,164
2017-02-18T08:15:16.147Z,160
2017-02-18T08:16:25.694Z,172
2017-02-18T08:17:34.705Z,148
2017-02-18T08:18:43.813Z,160
2017-02-18T08:19:52.833Z,172
2017-02-18T08:21:01.865Z,176
2017-02-18T08:22:10.975Z,204
2017-02-18T08:23:20.336Z,216
2017-02-18T08:24:29.618Z,212
2017-02-18T08:25:39.152Z,216
2017-02-18T08:26:48.238Z,220
2017-02-18T08:27:57.260Z,224
2017-02-18T08:29:06.544Z,216
2017-02-18T08:30:16.152Z,232
2017-02-18T08:31:25.239Z,220
2017-02-18T08:32:34.260Z,212
2017-02-18T08:33:43.297Z,204
2017-02-18T08:34:52.317Z,180
2017-02-18T08:36:01.327Z,172
2017-02-18T08:37:10.332Z,236
2017-02-18T08:38:19.359Z,236
2017-02-18T08:39:28.377Z,224
2017-02-18T08:40:37.382Z,236
2017-02-18T08:41:46.403Z,216
2017-02-18T08:42:55.417Z,224
2017-02-18T08:44:04.429Z,244
2017-02-18T08:45:13.448Z,248
2017-02-18T08:46:22.445Z,284
2017-02-18T08:47:31.484Z,312
2017-02-18T08:48:40.505Z,320
2017-02-18T08:49:49.936Z,312
2017-02-18T08:50:59.363Z,296
2017-02-18T08:52:08.373Z,268
2017-02-18T08:53:17.380Z,276
2017-02-18T08:54:26.388Z,264
2017-02-18T08:55:35.395Z,256
2017-02-18T08:56:44.401Z,264
2017-02-18T08:57:53.396Z,220
2017-02-18T08:59:02.416Z,264
2017-02-18T09:00:11.437Z,304
2017-02-18T09:01:20.504Z,316
2017-02-18T09:02:30.548Z,308
2017-02-18T09:03:39.551Z,300
2017-02-18T09:04:48.616Z,292
2017-02-18T09:05:57.654Z,316
2017-02-18T09:07:07.444Z,300
2017-02-18T09:08:17.045Z,276
2017-02-18T09:09:26.091Z,288
2017-02-18T09:10:35.111Z,308
2017-02-18T09:11:44.566Z,332
2017-02-18T09:12:53.986Z,288
2017-02-18T09:14:03.157Z,284
2017-02-18T09:15:12.339Z,236
2017-02-18T09:16:21.365Z,280
2017-02-18T09:17:30.365Z,280
2017-02-18T09:18:39.382Z,256
2017-02-18T09:19:48.416Z,292
2017-02-18T09:20:57.426Z,328
2017-02-18T09:22:06.447Z,336
2017-02-18T09:23:15.460Z,280
2017-02-18T09:24:24.478Z,292
2017-02-18T09:25:33.487Z,332
2017-02-18T09:26:42.522Z,312
2017-02-18T09:27:51.530Z,336
2017-02-18T09:29:01.220Z,340
2017-02-18T09:30:10.361Z,320
2017-02-18T09:31:19.389Z,312
2017-02-18T09:32:28.412Z,284
2017-02-18T09:33:37.431Z,336
2017-02-18T09:34:47.263Z,340
2017-02-18T09:35:56.682Z,260
2017-02-18T09:37:05.696Z,304
2017-02-18T09:38:14.696Z,336
2017-02-18T09:39:23.720Z,344
2017-02-18T09:40:32.751Z,340
2017-02-18T09:41:41.771Z,300
2017-02-18T09:42:50.784Z,272
2017-02-18T09:44:00.945Z,336
2017-02-18T09:45:09.962Z,336
2017-02-18T09:46:18.976Z,328
2017-02-18T09:47:27.980Z,320
2017-02-18T09:48:37.173Z,344
2017-02-18T09:49:46.189Z,372
2017-02-18T09:50:55.197Z,380
2017-02-18T09:52:04.269Z,344
2017-02-18T09:53:13.284Z,316
2017-02-18T09:54:22.715Z,400
2017-02-18T09:55:31.719Z,420
2017-02-18T09:56:40.712Z,392
2017-02-18T09:57:49.721Z,372
2017-02-18T09:58:58.747Z,380
2017-02-18T10:00:08.177Z,408
2017-02-18T10:01:17.185Z,408
2017-02-18T10:02:26.224Z,376
2017-02-18T10:03:35.245Z,344
2017-02-18T10:04:44.262Z,364
2017-02-18T10:05:53.333Z,396
2017-02-18T10:07:02.355Z,372
2017-02-18T10:08:11.373Z,380
2017-02-18T10:09:20.537Z,408
2017-02-18T10:10:29.739Z,440
2017-02-18T10:11:38.743Z,428
2017-02-18T10:12:47.769Z,380
2017-02-18T10:13:56.774Z,376
2017-02-18T10:15:06.610Z,388
2017-02-18T10:16:15.623Z,404
2017-02-18T10:17:24.642Z,388
2017-02-18T10:18:33.639Z,404
2017-02-18T10:19:42.667Z,408
2017-02-18T10:20:51.680Z,464
2017-02-18T10:22:00.695Z,440
2017-02-18T10:23:09.731Z,412
2017-02-18T10:24:18.736Z,408
2017-02-18T10:25:27.761Z,416
2017-02-18T10:26:36.797Z,432
2017-02-18T10:27:45.833Z,480
2017-02-18T10:28:55.371Z,464
2017-02-18T10:30:04.595Z,464
2017-02-18T10:31:13.721Z,460
2017-02-18T10:32:22.841Z,480
2017-02-18T10:33:31.849Z,496
2017-02-18T10:34:40.918Z,496
2017-02-18T10:35:49.933Z,464
2017-02-18T10:36:58.964Z,484
2017-02-18T10:38:08.953Z,500
2017-02-18T10:39:17.975Z,516
2017-02-18T10:40:27.395Z,524
2017-02-18T10:41:36.434Z,500
2017-02-18T10:42:45.437Z,532
2017-02-18T10:43:54.453Z,528
2017-02-18T10:45:03.979Z,452
2017-02-18T10:46:13.165Z,416
2017-02-18T10:47:22.188Z,388
2017-02-18T10:48:31.207Z,396
2017-02-18T10:49:40.224Z,404
2017-02-18T10:50:49.318Z,404
2017-02-18T10:51:58.345Z,388
2017-02-18T10:53:07.359Z,376
2017-02-18T10:54:16.393Z,364
2017-02-18T10:55:25.429Z,380
2017-02-18T10:56:34.453Z,360
2017-02-18T10:57:43.450Z,364
2017-02-18T10:58:52.492Z,364
2017-02-18T11:00:01.520Z,372
2017-02-18T11:01:10.608Z,380
2017-02-18T11:02:19.658Z,380
2017-02-18T11:03:28.696Z,356
2017-02-18T11:04:37.723Z,380
2017-02-18T11:05:46.750Z,404
2017-02-18T11:06:56.299Z,392
2017-02-18T11:08:06.219Z,380
2017-02-18T11:09:16.452Z,360
2017-02-18T11:10:26.287Z,372
2017-02-18T11:11:36.071Z,384
2017-02-18T11:12:45.800Z,400
2017-02-18T11:13:56.046Z,392
2017-02-18T11:15:05.869Z,396
2017-02-18T11:16:15.803Z,396
2017-02-18T11:17:25.728Z,376
2017-02-18T11:18:35.016Z,364
2017-02-18T11:19:44.095Z,360
2017-02-18T11:20:53.362Z,380
2017-02-18T11:22:02.383Z,384
2017-02-18T11:23:12.829Z,392
2017-02-18T11:24:25.585Z,412
2017-02-18T11:25:35.325Z,400
2017-02-18T11:26:45.781Z,404
2017-02-18T11:27:59.622Z,384
2017-02-18T11:29:08.825Z,388
2017-02-18T11:30:19.126Z,400
2017-02-18T11:31:28.173Z,408
2017-02-18T11:32:37.893Z,392
2017-02-18T11:33:47.943Z,392
2017-02-18T11:34:57.447Z,384
2017-02-18T11:36:06.589Z,368
2017-02-18T11:37:16.089Z,344
2017-02-18T11:38:25.447Z,328
2017-02-18T11:39:34.867Z,336
2017-02-18T11:40:44.263Z,336
2017-02-18T11:41:54.742Z,316
2017-02-18T11:43:04.440Z,324
2017-02-18T11:44:14.133Z,316
2017-02-18T11:45:23.268Z,336
2017-02-18T11:46:32.521Z,300
2017-02-18T11:47:41.533Z,280
2017-02-18T11:48:50.628Z,328
2017-02-18T11:50:00.311Z,320
2017-02-18T11:51:09.504Z,304
2017-02-18T11:52:18.521Z,308
2017-02-18T11:53:27.537Z,304
2017-02-18T11:54:37.023Z,280
2017-02-18T11:55:46.074Z,284
2017-02-18T11:56:55.224Z,292
2017-02-18T11:58:04.337Z,264
2017-02-18T11:59:13.496Z,292
2017-02-18T12:00:22.685Z,308
2017-02-18T12:01:31.695Z,316
2017-02-18T12:02:40.739Z,408
2017-02-18T12:03:53.510Z,412
2017-02-18T12:05:06.587Z,408
2017-02-18T12:06:21.190Z,396
2017-02-18T12:07:34.710Z,404
2017-02-18T12:08:49.560Z,408
2017-02-18T12:10:05.151Z,424
2017-02-18T12:11:20.381Z,424
2017-02-18T12:12:33.860Z,416
2017-02-18T12:13:47.222Z,424
2017-02-18T12:15:03.214Z,448
2017-02-18T12:16:17.860Z,436
2017-02-18T12:17:30.872Z,468
2017-02-18T12:18:45.751Z,376
2017-02-18T12:20:01.625Z,356
2017-02-18T12:21:16.142Z,360
2017-02-18T12:22:29.060Z,372
2017-02-18T12:23:43.992Z,400
2017-02-18T12:24:57.258Z,416
2017-02-18T12:26:11.206Z,400
2017-02-18T12:27:27.261Z,376
2017-02-18T12:28:40.473Z,396
2017-02-18T12:29:55.741Z,400
2017-02-18T12:31:11.011Z,440
2017-02-18T12:32:21.446Z,468
2017-02-18T12:33:30.940Z,444
2017-02-18T12:34:40.062Z,456
2017-02-18T12:35:49.540Z,468
2017-02-18T12:36:59.143Z,432
2017-02-18T12:38:09.019Z,500
2017-02-18T12:39:18.409Z,464
2017-02-18T12:40:27.744Z,472
2017-02-18T12:41:37.148Z,452
2017-02-18T12:42:46.760Z,472
2017-02-18T12:43:56.227Z,440
2017-02-18T12:45:05.483Z,392
2017-02-18T12:46:14.888Z,372
2017-02-18T12:47:24.030Z,364
2017-02-18T12:48:33.373Z,344
2017-02-18T12:49:44.043Z,344
2017-02-18T12:50:53.786Z,384
2017-02-18T12:52:02.939Z,456
2017-02-18T12:53:12.467Z,644
2017-02-18T12:54:21.879Z,704
2017-02-18T12:55:31.133Z,684
2017-02-18T12:56:41.092Z,628
2017-02-18T12:57:50.947Z,596
2017-02-18T12:59:00.010Z,604
2017-02-18T13:00:09.111Z,580
2017-02-18T13:01:20.459Z,584
2017-02-18T13:02:29.501Z,592
2017-02-18T13:03:38.523Z,580
2017-02-18T13:04:47.539Z,568
2017-02-18T13:05:56.565Z,540
2017-02-18T13:07:06.005Z,508
2017-02-18T13:08:15.012Z,516
2017-02-18T13:09:24.067Z,492
2017-02-18T13:10:33.130Z,500
2017-02-18T13:11:42.169Z,500
2017-02-18T13:12:51.199Z,476
2017-02-18T13:14:00.215Z,508
2017-02-18T13:15:09.237Z,492
2017-02-18T13:16:18.261Z,460
2017-02-18T13:17:27.693Z,448
2017-02-18T13:18:36.714Z,456
2017-02-18T13:19:45.742Z,448
2017-02-18T13:20:54.768Z,584
2017-02-18T13:22:03.792Z,864
2017-02-18T13:23:12.803Z,900
2017-02-18T13:24:21.827Z,884
2017-02-18T13:25:30.894Z,840
2017-02-18T13:26:39.937Z,828
2017-02-18T13:27:48.952Z,744
2017-02-18T13:28:58.001Z,684
2017-02-18T13:30:07.036Z,652
2017-02-18T13:31:16.058Z,660
2017-02-18T13:32:25.063Z,676
2017-02-18T13:33:34.100Z,604
2017-02-18T13:34:43.124Z,548
2017-02-18T13:35:52.136Z,532
2017-02-18T13:37:01.174Z,512
2017-02-18T13:38:10.217Z,484
2017-02-18T13:39:19.232Z,472
2017-02-18T13:40:28.335Z,480
2017-02-18T13:41:37.359Z,428
2017-02-18T13:42:46.379Z,384
2017-02-18T13:43:55.415Z,368
2017-02-18T13:45:04.843Z,360
2017-02-18T13:46:13.874Z,376
2017-02-18T13:47:22.890Z,332
2017-02-18T13:48:32.312Z,304
2017-02-18T13:49:42.083Z,324
2017-02-18T13:50:51.101Z,348
2017-02-18T13:52:00.129Z,352
2017-02-18T13:53:09.175Z,312
2017-02-18T13:54:18.203Z,348
2017-02-18T13:55:28.376Z,348
2017-02-18T13:56:37.433Z,344
2017-02-18T13:57:46.583Z,292
2017-02-18T13:58:55.617Z,296
2017-02-18T14:00:05.087Z,264
2017-02-18T14:01:14.105Z,248
2017-02-18T14:02:23.111Z,268
2017-02-18T14:03:32.223Z,296
2017-02-18T14:04:42.383Z,276
2017-02-18T14:05:51.403Z,276
2017-02-18T14:07:00.691Z,204
2017-02-18T14:08:10.116Z,188
2017-02-18T14:09:19.642Z,212
2017-02-18T14:10:29.184Z,228
2017-02-18T14:11:38.218Z,228
2017-02-18T14:12:47.229Z,244
2017-02-18T14:13:56.275Z,228
2017-02-18T14:15:05.304Z,200
2017-02-18T14:16:15.384Z,204
2017-02-18T14:17:24.411Z,204
2017-02-18T14:18:33.525Z,192
2017-02-18T14:19:42.614Z,192
2017-02-18T14:20:51.631Z,224
2017-02-18T14:22:01.070Z,200
2017-02-18T14:23:10.078Z,184
2017-02-18T14:24:19.100Z,184
2017-02-18T14:25:28.102Z,196
2017-02-18T14:26:37.124Z,168
2017-02-18T14:27:46.157Z,184
2017-02-18T14:28:55.175Z,180
2017-02-18T14:30:04.207Z,184
2017-02-18T14:31:13.245Z,200
2017-02-18T14:32:22.253Z,188
2017-02-18T14:33:31.274Z,156
2017-02-18T14:34:40.287Z,152
2017-02-18T14:35:49.315Z,124
2017-02-18T14:36:58.346Z,128
2017-02-18T14:38:07.372Z,124
2017-02-18T14:39:16.391Z,120
2017-02-18T14:40:25.408Z,128
2017-02-18T14:41:34.464Z,128
2017-02-18T14:42:43.491Z,108
2017-02-18T14:43:52.505Z,100
2017-02-18T14:45:01.525Z,96
2017-02-18T14:46:10.542Z,112
2017-02-18T14:47:19.563Z,136
2017-02-18T14:48:28.573Z,104
2017-02-18T14:49:38.006Z,92
2017-02-18T14:50:47.077Z,92
2017-02-18T14:51:56.501Z,92
2017-02-18T14:53:05.528Z,92
2017-02-18T14:54:14.564Z,108
2017-02-18T14:55:23.586Z,120
2017-02-18T14:56:32.613Z,148
2017-02-18T14:57:41.621Z,164
2017-02-18T14:58:50.639Z,144
2017-02-18T14:59:59.672Z,116
2017-02-18T15:01:09.083Z,108
2017-02-18T15:02:18.147Z,140
2017-02-18T15:03:27.155Z,116
2017-02-18T15:04:36.200Z,108
2017-02-18T15:05:45.286Z,96
2017-02-18T15:06:55.171Z,92
2017-02-18T15:08:04.228Z,88
2017-02-18T15:09:13.259Z,112
2017-02-18T15:10:22.588Z,96
2017-02-18T15:11:31.624Z,88
2017-02-18T15:12:41.095Z,116
2017-02-18T15:13:50.120Z,120
2017-02-18T15:14:59.128Z,92
2017-02-18T15:16:08.965Z,104
2017-02-18T15:17:18.305Z,112
2017-02-18T15:18:27.741Z,96
2017-02-18T15:19:37.037Z,100
2017-02-18T15:20:46.509Z,104
2017-02-18T15:21:55.945Z,80
2017-02-18T15:23:04.994Z,96
2017-02-18T15:24:14.023Z,108
2017-02-18T15:25:23.039Z,112
2017-02-18T15:26:32.070Z,116
2017-02-18T15:27:41.081Z,128
2017-02-18T15:28:50.108Z,128
2017-02-18T15:29:59.142Z,112
2017-02-18T15:31:08.589Z,108
2017-02-18T15:32:17.621Z,104
2017-02-18T15:33:26.650Z,96
2017-02-18T15:34:35.678Z,92
2017-02-18T15:35:44.749Z,96
2017-02-18T15:36:53.774Z,92
2017-02-18T15:38:02.844Z,84
2017-02-18T15:39:11.899Z,88
2017-02-18T15:40:20.944Z,100
2017-02-18T15:41:29.981Z,108
2017-02-18T15:42:39.010Z,116
2017-02-18T15:43:48.034Z,128
2017-02-18T15:44:57.497Z,124
2017-02-18T15:46:06.506Z,108
2017-02-18T15:47:15.528Z,108
2017-02-18T15:48:24.587Z,108
2017-02-18T15:49:33.626Z,104
2017-02-18T15:50:42.650Z,92
2017-02-18T15:51:51.695Z,88
2017-02-18T15:53:00.730Z,84
2017-02-18T15:54:09.772Z,76
2017-02-18T15:55:18.836Z,68
2017-02-18T15:56:27.850Z,64
2017-02-18T15:57:36.902Z,64
2017-02-18T15:58:45.934Z,64
2017-02-18T15:59:54.948Z,64
2017-02-18T16:01:03.975Z,64
2017-02-18T16:02:13.009Z,60
2017-02-18T16:03:22.146Z,60
2017-02-18T16:04:31.192Z,52
2017-02-18T16:05:40.212Z,48
2017-02-18T16:06:49.253Z,48
2017-02-18T16:07:59.016Z,44
2017-02-18T16:09:08.788Z,48
2017-02-18T16:10:21.164Z,44
2017-02-18T16:11:30.305Z,48
2017-02-18T16:12:39.741Z,44
2017-02-18T16:13:48.919Z,40
2017-02-18T16:15:00.848Z,36
2017-02-18T16:16:10.089Z,28
2017-02-18T16:17:19.327Z,28
2017-02-18T16:18:28.378Z,24
2017-02-18T16:19:37.405Z,28
2017-02-18T16:20:46.512Z,28
2017-02-18T16:21:55.678Z,20
2017-02-18T16:23:04.713Z,16
2017-02-18T16:24:13.800Z,16
2017-02-18T16:25:22.914Z,16
2017-02-18T16:26:31.938Z,16
2017-02-18T16:27:40.963Z,12
2017-02-18T16:28:50.004Z,12